sensor_id;sensor_type;location;lat;lon;timestamp;temperature;humidity
63899;HTU21D;50070;-32.946;-60.652;2023-02-15T00:19:50;30.25;28.12
63899;HTU21D;50070;-32.946;-60.652;2023-02-15T00:22:18;30.17;27.94
63899;HTU21D;50070;-32.946;-60.652;2023-02-15T00:24:47;30.04;28.11
63899;HTU21D;50070;-32.946;-60.652;2023-02-15T00:27:32;30.06;27.45
63899;HTU21D;50070;-32.946;-60.652;2023-02-15T00:29:59;30.05;27.92
63899;HTU21D;50070;-32.946;-60.652;2023-02-15T00:32:26;29.94;27.61
63899;HTU21D;50070;-32.946;-60.652;2023-02-15T00:34:53;29.86;27.58
63899;HTU21D;50070;-32.946;-60.652;2023-02-15T00:37:20;29.98;27.42
63899;HTU21D;50070;-32.946;-60.652;2023-02-15T00:39:50;30.06;27.02
63899;HTU21D;50070;-32.946;-60.652;2023-02-15T00:42:18;29.88;26.72
63899;HTU21D;50070;-32.946;-60.652;2023-02-15T00:44:45;29.83;26.68
63899;HTU21D;50070;-32.946;-60.652;2023-02-15T00:47:11;29.82;26.49
63899;HTU21D;50070;-32.946;-60.652;2023-02-15T00:49:38;29.89;26.44
63899;HTU21D;50070;-32.946;-60.652;2023-02-15T00:52:05;29.94;26.11
63899;HTU21D;50070;-32.946;-60.652;2023-02-15T00:54:33;29.90;26.18
63899;HTU21D;50070;-32.946;-60.652;2023-02-15T00:57:00;30.01;26.16
63899;HTU21D;50070;-32.946;-60.652;2023-02-15T00:59:27;29.81;26.11
63899;HTU21D;50070;-32.946;-60.652;2023-02-15T01:01:54;29.66;26.30
63899;HTU21D;50070;-32.946;-60.652;2023-02-15T01:04:21;29.74;26.23
63899;HTU21D;50070;-32.946;-60.652;2023-02-15T01:06:48;29.78;25.88
63899;HTU21D;50070;-32.946;-60.652;2023-02-15T01:09:14;29.65;25.85
63899;HTU21D;50070;-32.946;-60.652;2023-02-15T01:11:41;29.81;25.77
63899;HTU21D;50070;-32.946;-60.652;2023-02-15T01:14:08;29.75;25.56
63899;HTU21D;50070;-32.946;-60.652;2023-02-15T01:16:34;29.67;25.50
63899;HTU21D;50070;-32.946;-60.652;2023-02-15T01:19:01;29.71;25.41
63899;HTU21D;50070;-32.946;-60.652;2023-02-15T01:21:28;29.70;25.48
63899;HTU21D;50070;-32.946;-60.652;2023-02-15T01:23:55;29.70;25.71
63899;HTU21D;50070;-32.946;-60.652;2023-02-15T01:26:21;29.61;25.61
63899;HTU21D;50070;-32.946;-60.652;2023-02-15T01:28:51;29.63;25.33
63899;HTU21D;50070;-32.946;-60.652;2023-02-15T01:31:20;29.74;25.35
63899;HTU21D;50070;-32.946;-60.652;2023-02-15T01:33:47;29.77;25.11
63899;HTU21D;50070;-32.946;-60.652;2023-02-15T01:36:14;29.58;25.45
63899;HTU21D;50070;-32.946;-60.652;2023-02-15T01:38:43;29.46;25.63
63899;HTU21D;50070;-32.946;-60.652;2023-02-15T01:41:10;29.32;25.81
63899;HTU21D;50070;-32.946;-60.652;2023-02-15T01:43:57;29.56;25.52
63899;HTU21D;50070;-32.946;-60.652;2023-02-15T01:48:58;29.44;25.57
63899;HTU21D;50070;-32.946;-60.652;2023-02-15T01:51:28;29.31;25.69
63899;HTU21D;50070;-32.946;-60.652;2023-02-15T01:54:05;29.42;25.65
63899;HTU21D;50070;-32.946;-60.652;2023-02-15T01:56:38;29.23;25.92
63899;HTU21D;50070;-32.946;-60.652;2023-02-15T01:59:18;29.42;25.84
63899;HTU21D;50070;-32.946;-60.652;2023-02-15T02:01:46;29.29;26.08
63899;HTU21D;50070;-32.946;-60.652;2023-02-15T02:04:35;29.13;26.17
63899;HTU21D;50070;-32.946;-60.652;2023-02-15T02:07:06;29.28;25.94
63899;HTU21D;50070;-32.946;-60.652;2023-02-15T02:09:34;29.22;26.23
63899;HTU21D;50070;-32.946;-60.652;2023-02-15T02:12:02;29.12;26.24
63899;HTU21D;50070;-32.946;-60.652;2023-02-15T02:14:29;29.15;26.40
63899;HTU21D;50070;-32.946;-60.652;2023-02-15T02:35:11;28.85;27.10
63899;HTU21D;50070;-32.946;-60.652;2023-02-15T02:37:55;28.64;27.62
63899;HTU21D;50070;-32.946;-60.652;2023-02-15T02:43:35;28.49;27.62
63899;HTU21D;50070;-32.946;-60.652;2023-02-15T02:46:10;28.47;27.88
63899;HTU21D;50070;-32.946;-60.652;2023-02-15T02:48:39;28.68;26.94
63899;HTU21D;50070;-32.946;-60.652;2023-02-15T02:51:06;28.73;27.06
63899;HTU21D;50070;-32.946;-60.652;2023-02-15T02:53:33;28.43;27.68
63899;HTU21D;50070;-32.946;-60.652;2023-02-15T02:56:10;28.45;27.78
63899;HTU21D;50070;-32.946;-60.652;2023-02-15T02:58:57;28.52;27.52
63899;HTU21D;50070;-32.946;-60.652;2023-02-15T03:01:56;28.49;27.61
63899;HTU21D;50070;-32.946;-60.652;2023-02-15T03:04:32;28.53;27.96
63899;HTU21D;50070;-32.946;-60.652;2023-02-15T03:07:14;28.30;28.15
63899;HTU21D;50070;-32.946;-60.652;2023-02-15T03:09:54;28.14;28.60
63899;HTU21D;50070;-32.946;-60.652;2023-02-15T03:12:42;28.09;28.68
63899;HTU21D;50070;-32.946;-60.652;2023-02-15T03:17:45;28.08;28.56
63899;HTU21D;50070;-32.946;-60.652;2023-02-15T03:20:20;28.24;28.00
63899;HTU21D;50070;-32.946;-60.652;2023-02-15T03:23:01;27.97;28.26
63899;HTU21D;50070;-32.946;-60.652;2023-02-15T03:25:34;27.56;28.59
63899;HTU21D;50070;-32.946;-60.652;2023-02-15T03:28:03;27.81;28.42
63899;HTU21D;50070;-32.946;-60.652;2023-02-15T03:30:32;27.67;28.69
63899;HTU21D;50070;-32.946;-60.652;2023-02-15T03:33:05;27.14;29.20
63899;HTU21D;50070;-32.946;-60.652;2023-02-15T03:35:54;27.36;28.61
63899;HTU21D;50070;-32.946;-60.652;2023-02-15T03:38:47;27.30;28.76
63899;HTU21D;50070;-32.946;-60.652;2023-02-15T03:41:17;27.15;28.95
63899;HTU21D;50070;-32.946;-60.652;2023-02-15T03:46:50;26.95;28.56
63899;HTU21D;50070;-32.946;-60.652;2023-02-15T03:49:41;27.10;28.68
63899;HTU21D;50070;-32.946;-60.652;2023-02-15T03:52:10;26.73;29.27
63899;HTU21D;50070;-32.946;-60.652;2023-02-15T03:54:38;26.96;28.92
63899;HTU21D;50070;-32.946;-60.652;2023-02-15T03:57:22;26.64;29.45
63899;HTU21D;50070;-32.946;-60.652;2023-02-15T04:00:22;26.67;29.32
63899;HTU21D;50070;-32.946;-60.652;2023-02-15T04:05:55;26.41;29.87
63899;HTU21D;50070;-32.946;-60.652;2023-02-15T04:08:22;26.69;29.42
63899;HTU21D;50070;-32.946;-60.652;2023-02-15T04:11:09;26.79;28.86
63899;HTU21D;50070;-32.946;-60.652;2023-02-15T04:13:35;26.66;29.14
63899;HTU21D;50070;-32.946;-60.652;2023-02-15T04:16:02;26.71;28.66
63899;HTU21D;50070;-32.946;-60.652;2023-02-15T04:18:47;26.13;29.59
63899;HTU21D;50070;-32.946;-60.652;2023-02-15T04:21:31;26.09;29.61
63899;HTU21D;50070;-32.946;-60.652;2023-02-15T04:24:17;26.16;29.51
63899;HTU21D;50070;-32.946;-60.652;2023-02-15T04:27:04;25.95;29.78
63899;HTU21D;50070;-32.946;-60.652;2023-02-15T04:29:31;25.74;29.99
63899;HTU21D;50070;-32.946;-60.652;2023-02-15T04:31:59;26.02;29.50
63899;HTU21D;50070;-32.946;-60.652;2023-02-15T04:34:26;25.88;29.74
63899;HTU21D;50070;-32.946;-60.652;2023-02-15T04:36:53;25.63;30.10
63899;HTU21D;50070;-32.946;-60.652;2023-02-15T04:39:20;25.79;30.06
63899;HTU21D;50070;-32.946;-60.652;2023-02-15T04:41:46;25.76;30.09
63899;HTU21D;50070;-32.946;-60.652;2023-02-15T04:44:13;25.42;30.79
63899;HTU21D;50070;-32.946;-60.652;2023-02-15T04:46:40;25.46;30.77
63899;HTU21D;50070;-32.946;-60.652;2023-02-15T04:49:08;25.82;30.16
63899;HTU21D;50070;-32.946;-60.652;2023-02-15T04:51:35;25.27;31.38
63899;HTU21D;50070;-32.946;-60.652;2023-02-15T04:54:02;25.10;31.95
63899;HTU21D;50070;-32.946;-60.652;2023-02-15T04:56:29;25.40;31.45
63899;HTU21D;50070;-32.946;-60.652;2023-02-15T04:58:56;25.33;31.60
63899;HTU21D;50070;-32.946;-60.652;2023-02-15T05:01:22;25.51;31.41
63899;HTU21D;50070;-32.946;-60.652;2023-02-15T05:03:49;25.33;31.72
63899;HTU21D;50070;-32.946;-60.652;2023-02-15T05:06:16;25.22;32.15
63899;HTU21D;50070;-32.946;-60.652;2023-02-15T05:08:42;25.56;31.53
63899;HTU21D;50070;-32.946;-60.652;2023-02-15T05:11:09;25.34;32.12
63899;HTU21D;50070;-32.946;-60.652;2023-02-15T05:13:36;25.36;31.95
63899;HTU21D;50070;-32.946;-60.652;2023-02-15T05:16:04;25.47;31.82
63899;HTU21D;50070;-32.946;-60.652;2023-02-15T05:18:31;25.35;32.15
63899;HTU21D;50070;-32.946;-60.652;2023-02-15T05:21:00;25.37;32.09
63899;HTU21D;50070;-32.946;-60.652;2023-02-15T05:23:26;25.07;32.77
63899;HTU21D;50070;-32.946;-60.652;2023-02-15T05:25:53;25.45;32.08
63899;HTU21D;50070;-32.946;-60.652;2023-02-15T05:28:38;25.10;32.78
63899;HTU21D;50070;-32.946;-60.652;2023-02-15T05:42:16;24.94;33.72
63899;HTU21D;50070;-32.946;-60.652;2023-02-15T05:44:43;24.55;34.57
63899;HTU21D;50070;-32.946;-60.652;2023-02-15T05:47:10;24.92;33.91
63899;HTU21D;50070;-32.946;-60.652;2023-02-15T05:49:36;24.60;34.50
63899;HTU21D;50070;-32.946;-60.652;2023-02-15T05:52:03;24.51;34.89
63899;HTU21D;50070;-32.946;-60.652;2023-02-15T05:54:30;24.50;35.00
63899;HTU21D;50070;-32.946;-60.652;2023-02-15T05:56:57;24.64;34.76
63899;HTU21D;50070;-32.946;-60.652;2023-02-15T05:59:24;24.62;34.67
63899;HTU21D;50070;-32.946;-60.652;2023-02-15T06:01:50;24.78;34.55
63899;HTU21D;50070;-32.946;-60.652;2023-02-15T06:04:17;24.70;34.89
63899;HTU21D;50070;-32.946;-60.652;2023-02-15T06:06:44;24.44;35.30
63899;HTU21D;50070;-32.946;-60.652;2023-02-15T06:09:14;24.71;34.97
63899;HTU21D;50070;-32.946;-60.652;2023-02-15T06:11:40;24.71;35.22
63899;HTU21D;50070;-32.946;-60.652;2023-02-15T06:14:07;24.48;35.73
63899;HTU21D;50070;-32.946;-60.652;2023-02-15T06:16:34;24.49;36.00
63899;HTU21D;50070;-32.946;-60.652;2023-02-15T06:19:00;24.40;36.39
63899;HTU21D;50070;-32.946;-60.652;2023-02-15T06:21:28;24.70;35.90
63899;HTU21D;50070;-32.946;-60.652;2023-02-15T06:23:55;24.76;36.02
63899;HTU21D;50070;-32.946;-60.652;2023-02-15T06:26:24;25.00;35.37
63899;HTU21D;50070;-32.946;-60.652;2023-02-15T06:28:51;24.79;35.97
63899;HTU21D;50070;-32.946;-60.652;2023-02-15T06:31:18;24.78;36.05
63899;HTU21D;50070;-32.946;-60.652;2023-02-15T06:33:44;24.86;36.25
63899;HTU21D;50070;-32.946;-60.652;2023-02-15T06:36:11;25.03;35.70
63899;HTU21D;50070;-32.946;-60.652;2023-02-15T06:38:38;24.23;37.50
63899;HTU21D;50070;-32.946;-60.652;2023-02-15T06:41:05;24.68;36.53
63899;HTU21D;50070;-32.946;-60.652;2023-02-15T06:54:46;24.36;37.46
63899;HTU21D;50070;-32.946;-60.652;2023-02-15T06:57:13;24.33;37.47
63899;HTU21D;50070;-32.946;-60.652;2023-02-15T06:59:40;24.46;37.27
63899;HTU21D;50070;-32.946;-60.652;2023-02-15T07:02:12;24.70;36.79
63899;HTU21D;50070;-32.946;-60.652;2023-02-15T07:04:39;24.25;38.08
63899;HTU21D;50070;-32.946;-60.652;2023-02-15T07:07:10;24.39;37.69
63899;HTU21D;50070;-32.946;-60.652;2023-02-15T07:09:38;24.03;38.43
63899;HTU21D;50070;-32.946;-60.652;2023-02-15T07:12:05;24.39;37.63
63899;HTU21D;50070;-32.946;-60.652;2023-02-15T07:14:51;24.48;37.52
63899;HTU21D;50070;-32.946;-60.652;2023-02-15T07:17:18;24.33;37.78
63899;HTU21D;50070;-32.946;-60.652;2023-02-15T07:19:45;24.28;37.95
63899;HTU21D;50070;-32.946;-60.652;2023-02-15T07:22:12;24.47;37.62
63899;HTU21D;50070;-32.946;-60.652;2023-02-15T07:24:38;24.72;37.24
63899;HTU21D;50070;-32.946;-60.652;2023-02-15T07:27:07;24.47;37.88
63899;HTU21D;50070;-32.946;-60.652;2023-02-15T07:29:34;24.54;37.86
63899;HTU21D;50070;-32.946;-60.652;2023-02-15T07:32:00;24.43;38.17
63899;HTU21D;50070;-32.946;-60.652;2023-02-15T07:34:27;24.78;37.18
63899;HTU21D;50070;-32.946;-60.652;2023-02-15T07:36:54;24.71;37.38
63899;HTU21D;50070;-32.946;-60.652;2023-02-15T07:39:21;24.70;37.28
63899;HTU21D;50070;-32.946;-60.652;2023-02-15T07:41:47;24.80;37.31
63899;HTU21D;50070;-32.946;-60.652;2023-02-15T07:44:15;23.92;39.23
63899;HTU21D;50070;-32.946;-60.652;2023-02-15T07:46:42;24.45;38.24
63899;HTU21D;50070;-32.946;-60.652;2023-02-15T07:49:08;23.94;39.53
63899;HTU21D;50070;-32.946;-60.652;2023-02-15T07:51:35;23.77;39.81
63899;HTU21D;50070;-32.946;-60.652;2023-02-15T07:54:02;24.10;39.37
63899;HTU21D;50070;-32.946;-60.652;2023-02-15T07:56:29;24.17;39.51
63899;HTU21D;50070;-32.946;-60.652;2023-02-15T07:58:56;24.26;38.96
63899;HTU21D;50070;-32.946;-60.652;2023-02-15T08:01:32;24.29;39.23
63899;HTU21D;50070;-32.946;-60.652;2023-02-15T08:04:02;24.32;38.87
63899;HTU21D;50070;-32.946;-60.652;2023-02-15T08:06:32;24.13;39.44
63899;HTU21D;50070;-32.946;-60.652;2023-02-15T08:08:59;24.20;39.43
63899;HTU21D;50070;-32.946;-60.652;2023-02-15T08:11:28;23.99;39.72
63899;HTU21D;50070;-32.946;-60.652;2023-02-15T08:14:06;24.35;38.87
63899;HTU21D;50070;-32.946;-60.652;2023-02-15T08:19:29;23.96;39.95
63899;HTU21D;50070;-32.946;-60.652;2023-02-15T08:21:57;23.59;40.97
63899;HTU21D;50070;-32.946;-60.652;2023-02-15T08:24:26;23.83;40.30
63899;HTU21D;50070;-32.946;-60.652;2023-02-15T08:26:54;23.42;41.08
63899;HTU21D;50070;-32.946;-60.652;2023-02-15T08:29:23;23.21;41.68
63899;HTU21D;50070;-32.946;-60.652;2023-02-15T08:31:54;23.88;40.10
63899;HTU21D;50070;-32.946;-60.652;2023-02-15T08:34:24;23.52;41.02
63899;HTU21D;50070;-32.946;-60.652;2023-02-15T08:36:50;23.82;40.38
63899;HTU21D;50070;-32.946;-60.652;2023-02-15T08:39:17;23.67;41.00
63899;HTU21D;50070;-32.946;-60.652;2023-02-15T08:41:48;23.62;41.20
63899;HTU21D;50070;-32.946;-60.652;2023-02-15T08:44:16;23.42;41.59
63899;HTU21D;50070;-32.946;-60.652;2023-02-15T08:46:45;23.76;40.84
63899;HTU21D;50070;-32.946;-60.652;2023-02-15T08:49:20;23.76;40.83
63899;HTU21D;50070;-32.946;-60.652;2023-02-15T08:51:48;23.80;40.96
63899;HTU21D;50070;-32.946;-60.652;2023-02-15T08:54:19;23.58;41.74
63899;HTU21D;50070;-32.946;-60.652;2023-02-15T08:56:47;23.62;41.60
63899;HTU21D;50070;-32.946;-60.652;2023-02-15T08:59:17;23.60;42.17
63899;HTU21D;50070;-32.946;-60.652;2023-02-15T09:01:45;23.75;42.01
63899;HTU21D;50070;-32.946;-60.652;2023-02-15T09:04:13;23.69;42.86
63899;HTU21D;50070;-32.946;-60.652;2023-02-15T09:06:44;23.60;43.29
63899;HTU21D;50070;-32.946;-60.652;2023-02-15T09:09:16;23.51;43.61
63899;HTU21D;50070;-32.946;-60.652;2023-02-15T09:11:50;23.54;44.06
63899;HTU21D;50070;-32.946;-60.652;2023-02-15T09:14:20;23.58;44.70
63899;HTU21D;50070;-32.946;-60.652;2023-02-15T09:16:48;23.44;45.18
63899;HTU21D;50070;-32.946;-60.652;2023-02-15T09:19:18;23.37;46.16
63899;HTU21D;50070;-32.946;-60.652;2023-02-15T09:21:46;23.08;47.75
63899;HTU21D;50070;-32.946;-60.652;2023-02-15T09:24:15;22.99;49.04
63899;HTU21D;50070;-32.946;-60.652;2023-02-15T09:26:44;22.98;49.74
63899;HTU21D;50070;-32.946;-60.652;2023-02-15T09:29:12;23.25;49.42
63899;HTU21D;50070;-32.946;-60.652;2023-02-15T09:31:41;23.07;50.91
63899;HTU21D;50070;-32.946;-60.652;2023-02-15T09:34:14;23.17;51.09
63899;HTU21D;50070;-32.946;-60.652;2023-02-15T09:36:42;23.06;52.20
63899;HTU21D;50070;-32.946;-60.652;2023-02-15T09:39:10;22.99;52.94
63899;HTU21D;50070;-32.946;-60.652;2023-02-15T09:41:52;23.23;52.97
63899;HTU21D;50070;-32.946;-60.652;2023-02-15T09:52:46;23.00;56.86
63899;HTU21D;50070;-32.946;-60.652;2023-02-15T09:55:36;23.56;55.74
63899;HTU21D;50070;-32.946;-60.652;2023-02-15T10:06:20;23.23;58.84
63899;HTU21D;50070;-32.946;-60.652;2023-02-15T10:14:38;23.12;59.70
63899;HTU21D;50070;-32.946;-60.652;2023-02-15T10:25:51;23.17;61.05
63899;HTU21D;50070;-32.946;-60.652;2023-02-15T10:28:26;22.92;62.63
63899;HTU21D;50070;-32.946;-60.652;2023-02-15T10:31:24;23.08;62.50
63899;HTU21D;50070;-32.946;-60.652;2023-02-15T10:45:47;23.11;63.56
63899;HTU21D;50070;-32.946;-60.652;2023-02-15T11:06:52;23.41;64.76
63899;HTU21D;50070;-32.946;-60.652;2023-02-15T11:09:22;23.12;66.15
63899;HTU21D;50070;-32.946;-60.652;2023-02-15T11:11:56;23.11;66.54
63899;HTU21D;50070;-32.946;-60.652;2023-02-15T11:17:47;23.44;65.69
63899;HTU21D;50070;-32.946;-60.652;2023-02-15T11:22:34;23.52;65.51
63899;HTU21D;50070;-32.946;-60.652;2023-02-15T11:25:04;23.47;65.88
63899;HTU21D;50070;-32.946;-60.652;2023-02-15T11:27:41;23.96;64.05
63899;HTU21D;50070;-32.946;-60.652;2023-02-15T11:30:21;23.84;64.62
63899;HTU21D;50070;-32.946;-60.652;2023-02-15T11:32:52;23.86;64.46
63899;HTU21D;50070;-32.946;-60.652;2023-02-15T11:35:27;23.87;64.69
63899;HTU21D;50070;-32.946;-60.652;2023-02-15T11:41:37;23.88;65.03
63899;HTU21D;50070;-32.946;-60.652;2023-02-15T11:43:49;24.18;64.21
63899;HTU21D;50070;-32.946;-60.652;2023-02-15T11:46:18;24.53;63.05
63899;HTU21D;50070;-32.946;-60.652;2023-02-15T11:48:46;24.32;64.05
63899;HTU21D;50070;-32.946;-60.652;2023-02-15T11:51:24;24.77;62.57
63899;HTU21D;50070;-32.946;-60.652;2023-02-15T11:53:53;24.59;63.13
63899;HTU21D;50070;-32.946;-60.652;2023-02-15T11:56:25;24.64;63.25
63899;HTU21D;50070;-32.946;-60.652;2023-02-15T11:59:12;24.85;62.31
63899;HTU21D;50070;-32.946;-60.652;2023-02-15T17:32:01;33.07;28.63
63899;HTU21D;50070;-32.946;-60.652;2023-02-15T17:35:00;32.98;27.83
63899;HTU21D;50070;-32.946;-60.652;2023-02-15T17:42:48;32.55;28.87
63899;HTU21D;50070;-32.946;-60.652;2023-02-15T17:45:15;32.89;28.49
63899;HTU21D;50070;-32.946;-60.652;2023-02-15T17:47:43;32.94;28.23
63899;HTU21D;50070;-32.946;-60.652;2023-02-15T17:50:22;32.84;26.30
63899;HTU21D;50070;-32.946;-60.652;2023-02-15T17:52:52;32.32;26.09
63899;HTU21D;50070;-32.946;-60.652;2023-02-15T17:55:21;32.60;25.81
63899;HTU21D;50070;-32.946;-60.652;2023-02-15T17:58:17;32.75;25.14
63899;HTU21D;50070;-32.946;-60.652;2023-02-15T18:00:50;33.05;24.74
63899;HTU21D;50070;-32.946;-60.652;2023-02-15T18:03:48;33.02;26.04
63899;HTU21D;50070;-32.946;-60.652;2023-02-15T18:06:38;33.02;25.29
63899;HTU21D;50070;-32.946;-60.652;2023-02-15T18:09:24;33.07;26.07
63899;HTU21D;50070;-32.946;-60.652;2023-02-15T18:14:45;32.94;25.29
63899;HTU21D;50070;-32.946;-60.652;2023-02-15T18:17:14;33.22;24.94
63899;HTU21D;50070;-32.946;-60.652;2023-02-15T18:19:42;33.34;25.80
63899;HTU21D;50070;-32.946;-60.652;2023-02-15T18:22:16;33.40;24.75
63899;HTU21D;50070;-32.946;-60.652;2023-02-15T18:24:45;33.09;24.42
63899;HTU21D;50070;-32.946;-60.652;2023-02-15T18:46:43;33.18;22.70
63899;HTU21D;50070;-32.946;-60.652;2023-02-15T18:49:10;32.69;23.57
63899;HTU21D;50070;-32.946;-60.652;2023-02-15T18:51:37;33.32;22.94
63899;HTU21D;50070;-32.946;-60.652;2023-02-15T18:54:22;33.29;22.57
63899;HTU21D;50070;-32.946;-60.652;2023-02-15T18:56:54;33.37;22.82
63899;HTU21D;50070;-32.946;-60.652;2023-02-15T18:59:23;33.12;22.85
63899;HTU21D;50070;-32.946;-60.652;2023-02-15T19:01:51;33.07;22.99
63899;HTU21D;50070;-32.946;-60.652;2023-02-15T19:04:18;33.35;22.86
63899;HTU21D;50070;-32.946;-60.652;2023-02-15T19:06:49;33.63;22.75
63899;HTU21D;50070;-32.946;-60.652;2023-02-15T19:09:19;32.85;22.82
63899;HTU21D;50070;-32.946;-60.652;2023-02-15T19:11:52;33.06;23.27
63899;HTU21D;50070;-32.946;-60.652;2023-02-15T19:14:32;33.65;22.74
63899;HTU21D;50070;-32.946;-60.652;2023-02-15T19:16:59;33.59;22.14
63899;HTU21D;50070;-32.946;-60.652;2023-02-15T19:19:26;33.34;22.83
63899;HTU21D;50070;-32.946;-60.652;2023-02-15T19:21:53;33.33;22.66
63899;HTU21D;50070;-32.946;-60.652;2023-02-15T19:24:40;33.45;22.98
63899;HTU21D;50070;-32.946;-60.652;2023-02-15T19:27:22;33.49;22.34
63899;HTU21D;50070;-32.946;-60.652;2023-02-15T19:29:50;33.55;22.24
63899;HTU21D;50070;-32.946;-60.652;2023-02-15T19:32:18;33.38;22.08
63899;HTU21D;50070;-32.946;-60.652;2023-02-15T19:34:45;33.13;22.49
63899;HTU21D;50070;-32.946;-60.652;2023-02-15T19:37:35;33.07;22.50
63899;HTU21D;50070;-32.946;-60.652;2023-02-15T19:40:06;33.45;21.76
63899;HTU21D;50070;-32.946;-60.652;2023-02-15T19:42:33;33.27;22.02
63899;HTU21D;50070;-32.946;-60.652;2023-02-15T20:07:18;33.32;25.04
63899;HTU21D;50070;-32.946;-60.652;2023-02-15T20:09:47;33.05;24.81
63899;HTU21D;50070;-32.946;-60.652;2023-02-15T20:12:23;32.96;25.60
63899;HTU21D;50070;-32.946;-60.652;2023-02-15T20:14:52;32.84;25.45
63899;HTU21D;50070;-32.946;-60.652;2023-02-15T20:17:22;32.91;25.68
63899;HTU21D;50070;-32.946;-60.652;2023-02-15T20:19:49;33.20;25.42
63899;HTU21D;50070;-32.946;-60.652;2023-02-15T20:22:22;32.82;26.44
63899;HTU21D;50070;-32.946;-60.652;2023-02-15T20:24:50;32.71;26.34
63899;HTU21D;50070;-32.946;-60.652;2023-02-15T20:27:18;32.56;26.88
63899;HTU21D;50070;-32.946;-60.652;2023-02-15T20:30:03;32.71;26.99
63899;HTU21D;50070;-32.946;-60.652;2023-02-15T20:32:30;32.66;26.90
63899;HTU21D;50070;-32.946;-60.652;2023-02-15T20:34:56;33.02;26.62
63899;HTU21D;50070;-32.946;-60.652;2023-02-15T20:37:26;32.79;26.97
63899;HTU21D;50070;-32.946;-60.652;2023-02-15T20:39:55;32.75;26.51
63899;HTU21D;50070;-32.946;-60.652;2023-02-15T20:42:22;32.77;26.66
63899;HTU21D;50070;-32.946;-60.652;2023-02-15T20:44:49;32.69;27.01
63899;HTU21D;50070;-32.946;-60.652;2023-02-15T20:47:17;32.86;26.77
63899;HTU21D;50070;-32.946;-60.652;2023-02-15T20:49:44;32.70;27.14
63899;HTU21D;50070;-32.946;-60.652;2023-02-15T20:52:18;32.56;27.68
63899;HTU21D;50070;-32.946;-60.652;2023-02-15T20:54:48;32.39;27.58
63899;HTU21D;50070;-32.946;-60.652;2023-02-15T20:57:14;32.34;27.76
63899;HTU21D;50070;-32.946;-60.652;2023-02-15T20:59:42;32.25;27.23
63899;HTU21D;50070;-32.946;-60.652;2023-02-15T21:02:20;32.26;27.68
63899;HTU21D;50070;-32.946;-60.652;2023-02-15T21:04:50;32.09;27.35
63899;HTU21D;50070;-32.946;-60.652;2023-02-15T21:12:50;32.20;26.93
63899;HTU21D;50070;-32.946;-60.652;2023-02-15T21:15:37;32.05;27.04
63899;HTU21D;50070;-32.946;-60.652;2023-02-15T21:18:21;32.24;27.48
63899;HTU21D;50070;-32.946;-60.652;2023-02-15T21:21:01;32.46;26.84
63899;HTU21D;50070;-32.946;-60.652;2023-02-15T21:23:39;32.35;26.96
63899;HTU21D;50070;-32.946;-60.652;2023-02-15T21:26:14;32.19;26.78
63899;HTU21D;50070;-32.946;-60.652;2023-02-15T21:28:41;32.15;27.29
63899;HTU21D;50070;-32.946;-60.652;2023-02-15T21:31:15;32.09;27.55
63899;HTU21D;50070;-32.946;-60.652;2023-02-15T21:33:45;31.93;27.93
63899;HTU21D;50070;-32.946;-60.652;2023-02-15T21:36:25;31.92;27.49
63899;HTU21D;50070;-32.946;-60.652;2023-02-15T21:38:52;31.79;28.10
63899;HTU21D;50070;-32.946;-60.652;2023-02-15T21:41:21;32.04;27.82
63899;HTU21D;50070;-32.946;-60.652;2023-02-15T21:44:20;31.80;27.87
63899;HTU21D;50070;-32.946;-60.652;2023-02-15T21:47:18;31.90;27.97
63899;HTU21D;50070;-32.946;-60.652;2023-02-15T21:50:05;32.04;27.18
63899;HTU21D;50070;-32.946;-60.652;2023-02-15T21:52:53;32.00;26.68
63899;HTU21D;50070;-32.946;-60.652;2023-02-15T21:55:22;32.07;27.54
63899;HTU21D;50070;-32.946;-60.652;2023-02-15T21:57:49;32.07;27.34
63899;HTU21D;50070;-32.946;-60.652;2023-02-15T22:00:21;32.01;27.24
63899;HTU21D;50070;-32.946;-60.652;2023-02-15T22:02:51;31.87;26.72
63899;HTU21D;50070;-32.946;-60.652;2023-02-15T22:05:22;31.94;26.62
63899;HTU21D;50070;-32.946;-60.652;2023-02-15T22:07:50;31.85;26.10
63899;HTU21D;50070;-32.946;-60.652;2023-02-15T22:10:16;31.90;26.20
63899;HTU21D;50070;-32.946;-60.652;2023-02-15T22:19:53;31.69;26.74
63899;HTU21D;50070;-32.946;-60.652;2023-02-15T22:22:20;31.73;26.31
63899;HTU21D;50070;-32.946;-60.652;2023-02-15T22:24:47;31.83;26.07
63899;HTU21D;50070;-32.946;-60.652;2023-02-15T22:27:19;31.87;26.05
63899;HTU21D;50070;-32.946;-60.652;2023-02-15T22:29:48;31.96;26.27
63899;HTU21D;50070;-32.946;-60.652;2023-02-15T22:32:21;31.55;26.36
63899;HTU21D;50070;-32.946;-60.652;2023-02-15T22:34:49;31.51;27.39
63899;HTU21D;50070;-32.946;-60.652;2023-02-15T22:37:16;31.26;28.36
63899;HTU21D;50070;-32.946;-60.652;2023-02-15T22:39:43;31.36;27.84
63899;HTU21D;50070;-32.946;-60.652;2023-02-15T22:42:22;31.27;27.53
63899;HTU21D;50070;-32.946;-60.652;2023-02-15T22:44:54;31.28;27.36
63899;HTU21D;50070;-32.946;-60.652;2023-02-15T22:47:23;31.08;27.26
63899;HTU21D;50070;-32.946;-60.652;2023-02-15T22:49:50;31.05;28.02
63899;HTU21D;50070;-32.946;-60.652;2023-02-15T22:52:21;31.18;27.96
63899;HTU21D;50070;-32.946;-60.652;2023-02-15T22:54:48;31.05;27.84
63899;HTU21D;50070;-32.946;-60.652;2023-02-15T22:57:34;31.23;27.86
63899;HTU21D;50070;-32.946;-60.652;2023-02-15T23:00:15;31.31;27.75
63899;HTU21D;50070;-32.946;-60.652;2023-02-15T23:02:42;31.41;28.39
63899;HTU21D;50070;-32.946;-60.652;2023-02-15T23:05:29;31.28;27.84
63899;HTU21D;50070;-32.946;-60.652;2023-02-15T23:07:56;31.38;27.58
63899;HTU21D;50070;-32.946;-60.652;2023-02-15T23:10:24;31.01;28.29
63899;HTU21D;50070;-32.946;-60.652;2023-02-15T23:12:54;30.98;28.52
63899;HTU21D;50070;-32.946;-60.652;2023-02-15T23:15:42;31.09;29.15
63899;HTU21D;50070;-32.946;-60.652;2023-02-15T23:23:33;31.02;28.54
63899;HTU21D;50070;-32.946;-60.652;2023-02-15T23:26:01;30.92;29.00
63899;HTU21D;50070;-32.946;-60.652;2023-02-15T23:28:32;30.86;28.31
63899;HTU21D;50070;-32.946;-60.652;2023-02-15T23:31:00;30.97;28.19
63899;HTU21D;50070;-32.946;-60.652;2023-02-15T23:33:32;30.85;28.19
63899;HTU21D;50070;-32.946;-60.652;2023-02-15T23:36:00;31.07;28.00
63899;HTU21D;50070;-32.946;-60.652;2023-02-15T23:38:29;30.92;26.79
63899;HTU21D;50070;-32.946;-60.652;2023-02-15T23:41:02;31.04;26.10
63899;HTU21D;50070;-32.946;-60.652;2023-02-15T23:43:54;31.09;26.38
63899;HTU21D;50070;-32.946;-60.652;2023-02-15T23:46:42;31.08;27.71
63899;HTU21D;50070;-32.946;-60.652;2023-02-15T23:49:11;31.14;25.07
63899;HTU21D;50070;-32.946;-60.652;2023-02-15T23:51:46;31.31;24.77
63899;HTU21D;50070;-32.946;-60.652;2023-02-15T23:54:14;31.45;24.93
63899;HTU21D;50070;-32.946;-60.652;2023-02-15T23:56:43;31.55;25.17
63899;HTU21D;50070;-32.946;-60.652;2023-02-15T23:59:22;31.24;25.59
